createdAt,value
2022-12-20T00:00:09.301Z,50.13
2022-12-20T00:00:45.212Z,48.10
2022-12-20T00:01:24.290Z,47.87
2022-12-20T00:01:57.253Z,48.63
2022-12-20T00:02:30.281Z,49.40
2022-12-20T00:03:03.264Z,49.07
2022-12-20T00:03:37.081Z,50.43
2022-12-20T00:04:12.784Z,49.50
2022-12-20T00:04:45.581Z,49.73
2022-12-20T00:05:18.418Z,48.33
2022-12-20T00:05:51.194Z,49.27
2022-12-20T00:06:24.578Z,49.20
2022-12-20T00:06:57.378Z,51.13
2022-12-20T00:07:30.270Z,69.70
2022-12-20T00:08:03.057Z,73.63
2022-12-20T00:08:36.565Z,69.77
2022-12-20T00:09:11.722Z,59.97
2022-12-20T00:09:44.594Z,57.73
2022-12-20T00:10:17.391Z,54.33
2022-12-20T00:10:50.174Z,53.57
2022-12-20T00:11:24.563Z,53.60
2022-12-20T00:11:57.389Z,51.50
2022-12-20T00:13:47.642Z,50.80
2022-12-20T00:14:20.375Z,50.03
2022-12-20T00:14:53.108Z,50.57
2022-12-20T00:15:25.996Z,50.77
2022-12-20T00:16:26.064Z,51.47
2022-12-20T00:16:58.826Z,50.80
2022-12-20T00:17:31.626Z,51.57
2022-12-20T00:19:51.188Z,51.77
2022-12-20T00:20:24.446Z,50.90
2022-12-20T00:21:01.089Z,51.13
2022-12-20T00:21:35.109Z,50.67
2022-12-20T00:22:07.996Z,52.33
2022-12-20T00:22:40.788Z,50.37
2022-12-20T00:23:13.576Z,49.90
2022-12-20T00:23:46.627Z,50.03
2022-12-20T00:24:25.631Z,50.27
2022-12-20T00:24:59.061Z,51.07
2022-12-20T00:25:31.848Z,50.90
2022-12-20T00:26:11.245Z,51.10
2022-12-20T00:26:43.996Z,50.80
2022-12-20T00:27:16.748Z,49.83
2022-12-20T00:27:50.421Z,51.97
2022-12-20T00:28:23.177Z,52.57
2022-12-20T00:28:59.185Z,51.23
2022-12-20T00:29:32.107Z,50.17
2022-12-20T00:30:06.375Z,50.03
2022-12-20T00:30:39.152Z,50.63
2022-12-20T00:31:15.544Z,50.87
2022-12-20T00:31:48.560Z,49.50
2022-12-20T00:32:21.406Z,50.07
2022-12-20T00:32:54.199Z,49.50
2022-12-20T00:33:27.047Z,52.57
2022-12-20T00:34:01.231Z,51.23
2022-12-20T00:34:34.008Z,49.73
2022-12-20T00:35:07.170Z,48.63
2022-12-20T00:35:43.224Z,50.37
2022-12-20T00:36:17.616Z,51.13
2022-12-20T00:36:50.418Z,49.70
2022-12-20T00:37:23.178Z,50.70
2022-12-20T00:37:55.948Z,49.10
2022-12-20T00:38:28.889Z,51.63
2022-12-20T00:39:02.537Z,49.70
2022-12-20T00:39:35.336Z,50.33
2022-12-20T00:40:08.875Z,49.40
2022-12-20T00:40:41.664Z,50.33
2022-12-20T00:41:20.485Z,51.07
2022-12-20T00:41:53.272Z,49.40
2022-12-20T00:42:26.020Z,48.33
2022-12-20T00:42:58.789Z,50.67
2022-12-20T00:43:32.793Z,50.70
2022-12-20T00:44:05.730Z,51.17
2022-12-20T00:44:38.512Z,50.33
2022-12-20T00:45:11.450Z,50.13
2022-12-20T00:45:44.208Z,49.33
2022-12-20T00:46:18.875Z,49.60
2022-12-20T00:46:51.829Z,48.40
2022-12-20T00:47:24.656Z,48.73
2022-12-20T00:47:57.412Z,48.87
2022-12-20T00:48:31.718Z,49.07
2022-12-20T00:49:04.529Z,49.43
2022-12-20T00:49:37.313Z,48.40
2022-12-20T00:50:10.343Z,49.40
2022-12-20T00:50:43.133Z,48.80
2022-12-20T00:51:19.227Z,48.00
2022-12-20T00:51:51.982Z,47.50
2022-12-20T00:52:24.830Z,48.50
2022-12-20T00:52:57.597Z,49.27
2022-12-20T00:53:31.366Z,48.47
2022-12-20T00:54:04.303Z,49.00
2022-12-20T00:54:37.399Z,48.63
2022-12-20T00:55:10.263Z,47.87
2022-12-20T00:55:45.445Z,48.40
2022-12-20T00:56:19.094Z,48.33
2022-12-20T00:56:51.913Z,47.03
2022-12-20T00:57:25.024Z,48.03
2022-12-20T00:57:57.837Z,49.37
2022-12-20T00:58:36.589Z,49.60
2022-12-20T00:59:09.394Z,49.73
2022-12-20T00:59:42.171Z,48.87
2022-12-20T01:00:15.428Z,49.13
2022-12-20T01:00:52.211Z,47.27
2022-12-20T01:01:33.292Z,47.67
2022-12-20T01:02:06.309Z,47.93
2022-12-20T01:02:39.317Z,47.37
2022-12-20T01:03:12.367Z,47.07
2022-12-20T01:03:45.518Z,46.97
2022-12-20T01:04:18.357Z,47.90
2022-12-20T01:04:51.123Z,48.13
2022-12-20T01:05:23.911Z,47.60
2022-12-20T01:06:02.612Z,47.53
2022-12-20T01:06:36.749Z,46.23
2022-12-20T01:07:09.604Z,48.07
2022-12-20T01:07:42.403Z,47.07
2022-12-20T01:08:15.551Z,47.00
2022-12-20T01:08:48.593Z,47.17
2022-12-20T01:09:21.369Z,45.70
2022-12-20T01:09:54.288Z,45.50
2022-12-20T01:10:27.592Z,46.77
2022-12-20T01:12:39.811Z,46.37
2022-12-20T01:14:30.886Z,45.80
2022-12-20T01:15:04.152Z,46.73
2022-12-20T01:15:37.227Z,47.33
2022-12-20T01:16:16.980Z,48.00
2022-12-20T01:16:49.855Z,46.87
2022-12-20T01:17:22.665Z,47.70
2022-12-20T01:17:55.492Z,45.87
2022-12-20T01:18:28.254Z,46.67
2022-12-20T01:19:02.071Z,46.50
2022-12-20T01:19:34.893Z,47.07
2022-12-20T01:20:08.334Z,47.27
2022-12-20T01:20:41.103Z,46.90
2022-12-20T01:21:16.487Z,47.40
2022-12-20T01:21:49.262Z,47.60
2022-12-20T01:22:22.068Z,47.37
2022-12-20T01:22:54.837Z,46.67
2022-12-20T01:23:28.396Z,48.17
2022-12-20T01:24:01.368Z,48.40
2022-12-20T01:24:34.125Z,47.03
2022-12-20T01:25:07.386Z,48.97
2022-12-20T01:25:40.371Z,48.23
2022-12-20T01:26:16.444Z,47.23
2022-12-20T01:26:49.405Z,45.80
2022-12-20T01:27:22.346Z,46.20
2022-12-20T01:27:55.144Z,47.17
2022-12-20T01:28:28.988Z,47.73
2022-12-20T01:29:01.883Z,46.37
2022-12-20T01:29:34.636Z,46.97
2022-12-20T01:30:08.140Z,46.27
2022-12-20T01:30:41.573Z,45.20
2022-12-20T01:31:17.537Z,46.70
2022-12-20T01:31:50.386Z,46.80
2022-12-20T01:32:23.214Z,45.57
2022-12-20T01:32:55.992Z,44.80
2022-12-20T01:33:28.754Z,45.83
2022-12-20T01:34:01.784Z,46.67
2022-12-20T01:34:34.580Z,47.47
2022-12-20T01:35:07.574Z,47.93
2022-12-20T01:35:40.423Z,47.70
2022-12-20T01:36:19.324Z,47.23
2022-12-20T01:36:52.063Z,46.57
2022-12-20T01:37:24.826Z,46.77
2022-12-20T01:37:57.604Z,45.90
2022-12-20T01:38:30.809Z,46.20
2022-12-20T01:39:13.184Z,46.97
2022-12-20T01:39:46.055Z,46.70
2022-12-20T01:40:18.950Z,47.60
2022-12-20T01:40:52.867Z,47.23
2022-12-20T01:41:26.570Z,45.57
2022-12-20T01:41:59.368Z,47.50
2022-12-20T01:42:32.138Z,46.20
2022-12-20T01:43:04.924Z,45.47
2022-12-20T01:44:05.636Z,45.90
2022-12-20T01:44:43.417Z,46.43
2022-12-20T01:45:28.539Z,46.30
2022-12-20T01:46:01.532Z,44.57
2022-12-20T01:46:39.633Z,45.90
2022-12-20T01:47:13.398Z,45.33
2022-12-20T01:47:46.311Z,44.00
2022-12-20T01:48:25.535Z,44.67
2022-12-20T01:49:14.675Z,44.47
2022-12-20T01:49:52.134Z,44.37
2022-12-20T01:50:26.579Z,43.67
2022-12-20T01:50:59.392Z,44.93
2022-12-20T01:51:37.101Z,43.83
2022-12-20T01:52:15.946Z,44.00
2022-12-20T01:52:48.991Z,43.90
2022-12-20T01:53:24.515Z,45.40
2022-12-20T01:54:05.216Z,45.90
2022-12-20T01:54:52.675Z,44.90
2022-12-20T01:55:28.080Z,45.07
2022-12-20T01:56:05.388Z,45.40
2022-12-20T01:56:41.376Z,45.07
2022-12-20T01:57:22.350Z,46.33
2022-12-20T01:58:08.632Z,44.57
2022-12-20T01:58:43.725Z,44.60
2022-12-20T01:59:17.181Z,45.40
2022-12-20T01:59:52.676Z,45.53
2022-12-20T02:00:26.071Z,44.93
2022-12-20T02:00:59.224Z,44.63
2022-12-20T02:01:32.709Z,44.70
2022-12-20T02:03:29.825Z,42.57
2022-12-20T02:04:03.667Z,43.33
2022-12-20T02:04:36.488Z,43.80
2022-12-20T02:05:09.679Z,45.27
2022-12-20T02:05:47.903Z,44.00
2022-12-20T02:06:24.446Z,44.73
2022-12-20T02:07:00.280Z,43.63
2022-12-20T02:07:38.154Z,43.97
2022-12-20T02:08:13.645Z,45.27
2022-12-20T02:08:51.032Z,45.17
2022-12-20T02:09:24.350Z,44.97
2022-12-20T02:10:00.976Z,44.43
2022-12-20T02:11:06.449Z,45.37
2022-12-20T02:12:08.676Z,45.77
2022-12-20T02:12:46.596Z,44.67
2022-12-20T02:13:56.296Z,44.63
2022-12-20T02:15:06.191Z,45.27
2022-12-20T02:15:56.373Z,44.33
2022-12-20T02:16:35.522Z,45.97
2022-12-20T02:17:17.234Z,44.63
2022-12-20T02:18:15.453Z,45.53
2022-12-20T02:23:05.902Z,46.00
2022-12-20T02:24:10.225Z,46.77
2022-12-20T02:24:59.463Z,44.77
2022-12-20T02:25:53.168Z,45.93
2022-12-20T02:26:44.185Z,45.50
2022-12-20T02:27:43.883Z,45.70
2022-12-20T02:28:40.695Z,46.13
2022-12-20T02:29:23.746Z,45.33
2022-12-20T02:30:10.459Z,45.37
2022-12-20T02:30:47.426Z,45.60
2022-12-20T02:31:27.640Z,45.87
2022-12-20T02:32:07.870Z,45.03
2022-12-20T02:32:47.916Z,46.20
2022-12-20T02:33:24.024Z,46.60
2022-12-20T02:33:59.203Z,46.80
2022-12-20T02:34:35.619Z,46.73
2022-12-20T02:35:13.222Z,45.97
2022-12-20T02:35:45.973Z,44.60
2022-12-20T02:36:19.172Z,45.20
2022-12-20T02:36:52.997Z,46.67
2022-12-20T02:37:25.816Z,48.47
2022-12-20T02:38:02.704Z,46.67
2022-12-20T02:38:38.607Z,45.77
2022-12-20T02:39:17.351Z,46.23
2022-12-20T02:39:50.602Z,47.00
2022-12-20T02:40:50.930Z,46.50
2022-12-20T02:41:34.998Z,45.87
2022-12-20T02:42:11.100Z,45.33
2022-12-20T02:42:44.957Z,46.37
2022-12-20T02:43:37.327Z,45.70
2022-12-20T02:44:33.066Z,45.93
2022-12-20T02:45:17.595Z,46.87
2022-12-20T02:45:50.881Z,47.33
2022-12-20T02:46:26.643Z,46.90
2022-12-20T02:47:05.321Z,45.57
2022-12-20T02:47:50.565Z,46.30
2022-12-20T02:48:28.575Z,45.93
2022-12-20T02:49:11.564Z,45.10
2022-12-20T02:49:47.406Z,45.83
2022-12-20T02:50:30.492Z,45.33
2022-12-20T02:51:06.229Z,46.60
2022-12-20T02:51:43.573Z,46.43
2022-12-20T02:52:21.198Z,46.67
2022-12-20T02:52:55.320Z,45.50
2022-12-20T02:53:29.644Z,45.30
2022-12-20T02:54:03.218Z,46.13
2022-12-20T02:54:38.055Z,45.33
2022-12-20T02:55:11.811Z,46.23
2022-12-20T02:56:01.944Z,45.67
2022-12-20T02:56:52.479Z,44.00
2022-12-20T02:57:40.317Z,45.63
2022-12-20T02:58:27.154Z,46.80
2022-12-20T02:59:30.072Z,46.17
2022-12-20T03:00:18.297Z,45.93
2022-12-20T03:00:54.051Z,45.07
2022-12-20T03:01:38.100Z,46.33
2022-12-20T03:02:12.755Z,46.10
2022-12-20T03:03:05.731Z,45.10
2022-12-20T03:03:39.036Z,45.70
2022-12-20T03:04:12.618Z,45.03
2022-12-20T03:04:48.051Z,44.90
2022-12-20T03:05:24.454Z,45.03
2022-12-20T03:05:57.289Z,45.33
2022-12-20T03:06:30.826Z,45.30
2022-12-20T03:07:06.721Z,45.87
2022-12-20T03:07:39.547Z,45.13
2022-12-20T03:08:12.492Z,45.63
2022-12-20T03:08:45.287Z,46.93
2022-12-20T03:09:18.078Z,45.83
2022-12-20T03:09:50.881Z,44.63
2022-12-20T03:10:24.371Z,44.80
2022-12-20T03:10:57.268Z,45.27
2022-12-20T03:11:30.063Z,45.23
2022-12-20T03:12:03.500Z,44.90
2022-12-20T03:12:36.234Z,44.90
2022-12-20T03:13:09.003Z,45.57
2022-12-20T03:13:41.921Z,45.93
2022-12-20T03:14:14.709Z,45.90
2022-12-20T03:14:47.529Z,45.20
2022-12-20T03:15:20.491Z,45.87
2022-12-20T03:15:53.246Z,46.23
2022-12-20T03:16:26.062Z,44.93
2022-12-20T03:16:58.991Z,44.47
2022-12-20T03:17:31.780Z,44.37
2022-12-20T03:18:05.191Z,44.13
2022-12-20T03:18:38.711Z,44.63
2022-12-20T03:19:11.783Z,45.37
2022-12-20T03:19:44.565Z,45.60
2022-12-20T03:20:17.615Z,44.93
2022-12-20T03:20:50.403Z,44.17
2022-12-20T03:21:23.195Z,45.40
2022-12-20T03:21:56.029Z,44.60
2022-12-20T03:22:28.822Z,44.23
2022-12-20T03:23:01.650Z,44.37
2022-12-20T03:23:34.493Z,45.13
2022-12-20T03:24:07.752Z,45.23
2022-12-20T03:24:40.510Z,45.37
2022-12-20T03:25:13.406Z,45.73
2022-12-20T03:25:46.264Z,45.43
2022-12-20T03:26:19.052Z,45.93
2022-12-20T03:26:52.234Z,44.80
2022-12-20T03:27:26.071Z,44.53
2022-12-20T03:27:58.920Z,43.80
2022-12-20T03:28:31.696Z,44.57
2022-12-20T03:29:04.725Z,43.83
2022-12-20T03:29:37.521Z,45.87
2022-12-20T03:30:10.752Z,44.73
2022-12-20T03:30:43.546Z,44.43
2022-12-20T03:31:16.489Z,43.67
2022-12-20T03:31:49.315Z,45.47
2022-12-20T03:32:22.398Z,44.37
2022-12-20T03:32:55.239Z,43.40
2022-12-20T03:33:28.044Z,43.00
2022-12-20T03:34:00.975Z,43.13
2022-12-20T03:34:33.737Z,44.37
2022-12-20T03:35:07.171Z,44.43
2022-12-20T03:35:40.227Z,43.07
2022-12-20T03:36:13.004Z,44.23
2022-12-20T03:36:45.767Z,45.47
2022-12-20T03:37:18.685Z,45.43
2022-12-20T03:37:51.468Z,44.53
2022-12-20T03:38:24.305Z,43.63
2022-12-20T03:38:57.275Z,44.40
2022-12-20T03:39:30.124Z,44.03
2022-12-20T03:40:03.241Z,43.40
2022-12-20T03:40:35.998Z,45.67
2022-12-20T03:41:08.782Z,45.37
2022-12-20T03:44:15.130Z,41.27
2022-12-20T03:44:47.993Z,44.77
2022-12-20T03:45:20.798Z,43.90
2022-12-20T03:45:53.589Z,45.10
2022-12-20T03:46:26.487Z,45.17
2022-12-20T03:46:59.325Z,45.17
2022-12-20T03:47:32.322Z,44.37
2022-12-20T03:48:05.111Z,43.03
2022-12-20T03:48:37.890Z,44.57
2022-12-20T03:49:10.656Z,43.57
2022-12-20T03:49:43.427Z,43.47
2022-12-20T03:50:16.452Z,42.37
2022-12-20T03:50:49.359Z,43.97
2022-12-20T03:51:22.162Z,43.87
2022-12-20T03:51:55.007Z,44.50
2022-12-20T03:52:27.810Z,44.87
2022-12-20T03:53:00.970Z,45.97
2022-12-20T03:53:34.261Z,44.27
2022-12-20T03:54:07.492Z,44.97
2022-12-20T03:54:40.572Z,43.97
2022-12-20T03:55:13.372Z,43.47
2022-12-20T03:55:46.217Z,43.37
2022-12-20T03:56:19.377Z,43.20
2022-12-20T03:56:52.165Z,43.10
2022-12-20T03:57:24.979Z,44.37
2022-12-20T03:57:57.761Z,43.60
2022-12-20T03:58:30.550Z,44.23
2022-12-20T03:59:03.370Z,43.13
2022-12-20T03:59:36.252Z,43.67
2022-12-20T04:00:09.642Z,43.93
2022-12-20T04:00:42.528Z,44.10
2022-12-20T04:01:24.074Z,43.27
2022-12-20T04:01:57.097Z,42.77
2022-12-20T04:02:30.153Z,43.30
2022-12-20T04:03:03.198Z,43.33
2022-12-20T04:03:36.152Z,43.83
2022-12-20T04:04:12.617Z,43.07
2022-12-20T04:04:45.665Z,44.27
2022-12-20T04:05:18.664Z,43.60
2022-12-20T04:05:51.977Z,43.97
2022-12-20T04:06:24.799Z,43.70
2022-12-20T04:06:57.600Z,43.17
2022-12-20T04:07:30.416Z,42.60
2022-12-20T04:08:03.301Z,43.83
2022-12-20T04:08:36.084Z,43.40
2022-12-20T04:09:08.903Z,43.83
2022-12-20T04:09:41.689Z,42.03
2022-12-20T04:10:14.550Z,42.47
2022-12-20T04:11:06.194Z,42.87
2022-12-20T04:11:39.532Z,42.70
2022-12-20T04:12:12.328Z,42.57
2022-12-20T04:12:45.097Z,43.07
2022-12-20T04:13:17.879Z,41.00
2022-12-20T04:13:53.327Z,42.37
2022-12-20T04:14:26.135Z,41.87
2022-12-20T04:14:58.928Z,42.53
2022-12-20T04:15:31.818Z,42.43
2022-12-20T04:16:04.985Z,42.43
2022-12-20T04:16:37.841Z,41.43
2022-12-20T04:17:11.092Z,41.87
2022-12-20T04:17:43.902Z,42.37
2022-12-20T04:18:16.684Z,41.30
2022-12-20T04:18:49.714Z,42.87
2022-12-20T04:19:22.584Z,41.63
2022-12-20T04:19:55.359Z,41.27
2022-12-20T04:20:28.180Z,40.67
2022-12-20T04:21:01.787Z,41.37
2022-12-20T04:21:36.036Z,41.37
2022-12-20T04:22:08.837Z,42.40
2022-12-20T04:22:41.632Z,41.60
2022-12-20T04:23:14.413Z,40.30
2022-12-20T04:23:47.178Z,40.57
2022-12-20T04:24:19.937Z,42.13
2022-12-20T04:24:52.769Z,42.00
2022-12-20T04:25:25.788Z,39.93
2022-12-20T04:25:58.549Z,41.60
2022-12-20T04:26:31.828Z,41.77
2022-12-20T04:27:04.616Z,40.90
2022-12-20T04:27:37.372Z,42.07
2022-12-20T04:28:10.200Z,42.67
2022-12-20T04:28:42.971Z,40.77
2022-12-20T04:29:15.906Z,41.33
2022-12-20T04:29:48.706Z,41.90
2022-12-20T04:30:21.606Z,41.13
2022-12-20T04:30:54.499Z,41.80
2022-12-20T04:31:27.432Z,40.37
2022-12-20T04:32:00.372Z,41.47
2022-12-20T04:32:33.194Z,42.37
2022-12-20T04:33:05.996Z,42.73
2022-12-20T04:33:39.218Z,42.50
2022-12-20T04:34:12.007Z,42.23
2022-12-20T04:34:44.786Z,42.17
2022-12-20T04:35:17.652Z,42.70
2022-12-20T04:35:50.711Z,40.33
2022-12-20T04:36:23.492Z,41.47
2022-12-20T04:36:56.325Z,41.70
2022-12-20T04:37:29.102Z,40.03
2022-12-20T04:38:01.940Z,42.20
2022-12-20T04:38:34.808Z,40.67
2022-12-20T04:39:07.626Z,41.13
2022-12-20T04:39:40.408Z,41.73
2022-12-20T04:40:13.607Z,41.03
2022-12-20T04:40:50.158Z,41.10
2022-12-20T04:41:23.084Z,41.80
2022-12-20T04:41:55.888Z,42.10
2022-12-20T04:42:28.698Z,42.57
2022-12-20T04:43:01.483Z,41.77
2022-12-20T04:43:34.338Z,42.23
2022-12-20T04:44:07.154Z,41.80
2022-12-20T04:44:40.038Z,41.50
2022-12-20T04:45:12.847Z,40.97
2022-12-20T04:45:47.972Z,40.10
2022-12-20T04:46:22.508Z,41.03
2022-12-20T04:46:55.427Z,41.37
2022-12-20T04:47:28.296Z,41.80
2022-12-20T04:48:21.031Z,41.57
2022-12-20T04:48:57.758Z,41.67
2022-12-20T04:49:31.553Z,41.97
2022-12-20T04:51:23.453Z,42.10
2022-12-20T04:52:16.034Z,41.63
2022-12-20T04:53:07.417Z,40.73
2022-12-20T04:53:49.239Z,41.80
2022-12-20T04:54:26.038Z,41.30
2022-12-20T04:54:58.842Z,40.87
2022-12-20T04:55:31.974Z,39.47
2022-12-20T04:56:05.365Z,41.33
2022-12-20T04:56:39.175Z,40.97
2022-12-20T04:57:12.056Z,41.00
2022-12-20T04:57:45.116Z,40.63
2022-12-20T04:58:18.493Z,41.27
2022-12-20T04:58:53.320Z,39.63
2022-12-20T04:59:26.170Z,39.70
2022-12-20T04:59:59.145Z,40.07
2022-12-20T05:00:32.309Z,40.27
2022-12-20T05:01:05.176Z,39.50
2022-12-20T05:01:38.187Z,39.63
2022-12-20T05:02:11.189Z,40.57
2022-12-20T05:02:44.445Z,41.50
2022-12-20T05:03:17.427Z,40.70
2022-12-20T05:03:50.705Z,40.57
2022-12-20T05:04:23.636Z,40.60
2022-12-20T05:04:56.460Z,41.70
2022-12-20T05:05:29.502Z,40.50
2022-12-20T05:06:02.379Z,41.17
2022-12-20T05:06:35.231Z,39.53
2022-12-20T05:07:08.372Z,40.30
2022-12-20T05:07:41.159Z,40.80
2022-12-20T05:08:14.581Z,39.33
2022-12-20T05:08:48.006Z,39.83
2022-12-20T05:09:20.829Z,38.97
2022-12-20T05:09:53.635Z,39.33
2022-12-20T05:10:26.465Z,40.60
2022-12-20T05:10:59.259Z,40.40
2022-12-20T05:11:32.049Z,40.37
2022-12-20T05:12:04.948Z,39.87
2022-12-20T05:12:37.776Z,38.60
2022-12-20T05:13:10.911Z,39.13
2022-12-20T05:13:44.000Z,40.57
2022-12-20T05:14:16.761Z,40.97
2022-12-20T05:14:49.550Z,41.10
2022-12-20T05:15:22.319Z,40.77
2022-12-20T05:15:57.055Z,40.73
2022-12-20T05:16:29.853Z,39.50
2022-12-20T05:17:02.701Z,40.13
2022-12-20T05:17:35.526Z,39.57
2022-12-20T05:18:08.403Z,40.37
2022-12-20T05:18:48.197Z,39.27
2022-12-20T05:19:21.867Z,38.87
2022-12-20T05:19:54.669Z,38.27
2022-12-20T05:20:28.749Z,39.10
2022-12-20T05:21:20.653Z,39.83
2022-12-20T05:22:11.777Z,39.53
2022-12-20T05:23:03.244Z,41.33
2022-12-20T05:23:54.463Z,40.50
2022-12-20T05:24:45.554Z,39.50
2022-12-20T05:25:37.003Z,40.90
2022-12-20T05:26:18.543Z,40.17
2022-12-20T05:26:51.367Z,39.50
2022-12-20T05:27:24.142Z,39.90
2022-12-20T05:27:57.086Z,40.70
2022-12-20T05:28:31.301Z,40.33
2022-12-20T05:29:05.054Z,39.00
2022-12-20T05:29:37.887Z,40.23
2022-12-20T05:30:11.274Z,40.27
2022-12-20T05:30:44.643Z,38.90
2022-12-20T05:31:17.562Z,39.30
2022-12-20T05:31:50.634Z,39.87
2022-12-20T05:32:23.416Z,39.40
2022-12-20T05:32:56.498Z,39.57
2022-12-20T05:33:33.836Z,39.90
2022-12-20T05:34:07.076Z,38.10
2022-12-20T05:34:39.916Z,38.40
2022-12-20T05:35:13.034Z,39.30
2022-12-20T05:35:45.882Z,40.03
2022-12-20T05:36:18.713Z,40.30
2022-12-20T05:36:51.639Z,40.70
2022-12-20T05:37:24.520Z,40.03
2022-12-20T05:37:57.280Z,40.40
2022-12-20T05:38:30.063Z,40.80
2022-12-20T05:39:04.580Z,40.47
2022-12-20T05:39:37.658Z,39.13
2022-12-20T05:40:10.949Z,38.93
2022-12-20T05:40:44.374Z,38.70
2022-12-20T05:41:17.204Z,39.40
2022-12-20T05:41:50.371Z,39.80
2022-12-20T05:42:23.125Z,39.60
2022-12-20T05:42:55.940Z,39.17
2022-12-20T05:43:28.756Z,37.87
2022-12-20T05:44:01.946Z,38.40
2022-12-20T05:44:34.935Z,39.93
2022-12-20T05:45:08.121Z,39.60
2022-12-20T05:45:41.026Z,39.47
2022-12-20T05:46:13.862Z,38.37
2022-12-20T05:46:46.695Z,37.83
2022-12-20T05:47:19.483Z,39.47
2022-12-20T05:49:09.108Z,37.00
2022-12-20T05:49:41.733Z,38.33
2022-12-20T05:50:18.625Z,38.67
2022-12-20T05:50:51.875Z,39.13
2022-12-20T05:51:24.825Z,39.27
2022-12-20T05:51:57.598Z,38.40
2022-12-20T05:52:30.526Z,38.07
2022-12-20T05:53:09.099Z,39.40
2022-12-20T05:53:44.792Z,38.20
2022-12-20T05:54:17.613Z,36.83
2022-12-20T05:54:50.400Z,37.60
2022-12-20T05:55:23.203Z,37.20
2022-12-20T05:55:56.173Z,37.80
2022-12-20T05:56:28.972Z,37.60
2022-12-20T05:57:01.854Z,38.97
2022-12-20T05:57:34.644Z,39.20
2022-12-20T05:58:08.112Z,38.57
2022-12-20T05:58:40.858Z,37.70
2022-12-20T05:59:13.647Z,38.57
2022-12-20T05:59:46.608Z,37.23
2022-12-20T06:00:19.715Z,37.00
2022-12-20T06:00:52.554Z,36.93
2022-12-20T06:01:25.438Z,37.40
2022-12-20T06:01:58.408Z,37.97
2022-12-20T06:02:31.424Z,37.43
2022-12-20T06:03:04.376Z,37.77
2022-12-20T06:03:38.335Z,37.50
2022-12-20T06:04:11.388Z,36.37
2022-12-20T06:04:44.204Z,36.03
2022-12-20T06:05:17.019Z,36.63
2022-12-20T06:05:49.791Z,37.40
2022-12-20T06:06:22.588Z,37.30
2022-12-20T06:06:55.453Z,37.53
2022-12-20T06:07:31.794Z,36.60
2022-12-20T06:08:06.370Z,36.63
2022-12-20T06:08:39.201Z,37.30
2022-12-20T06:09:12.120Z,36.53
2022-12-20T06:09:45.001Z,37.47
2022-12-20T06:10:17.842Z,36.97
2022-12-20T06:10:51.402Z,39.30
2022-12-20T06:11:29.567Z,36.70
2022-12-20T06:12:02.762Z,36.43
2022-12-20T06:12:35.551Z,37.37
2022-12-20T06:13:09.440Z,37.20
2022-12-20T06:13:42.288Z,37.07
2022-12-20T06:14:15.058Z,35.40
2022-12-20T06:14:47.840Z,35.00
2022-12-20T06:15:20.731Z,36.73
2022-12-20T06:15:53.815Z,36.23
2022-12-20T06:16:27.319Z,35.80
2022-12-20T06:17:00.121Z,36.17
2022-12-20T06:17:32.908Z,36.43
2022-12-20T06:18:09.884Z,36.50
2022-12-20T06:18:42.694Z,36.50
2022-12-20T06:19:21.168Z,35.17
2022-12-20T06:19:54.249Z,35.37
2022-12-20T06:20:28.660Z,36.07
2022-12-20T06:21:02.104Z,35.43
2022-12-20T06:21:34.905Z,36.50
2022-12-20T06:22:08.896Z,35.90
2022-12-20T06:22:41.689Z,38.10
2022-12-20T06:23:14.430Z,37.87
2022-12-20T06:23:47.411Z,35.60
2022-12-20T06:24:21.316Z,35.80
2022-12-20T06:24:54.130Z,36.93
2022-12-20T06:25:28.475Z,36.63
2022-12-20T06:26:01.232Z,36.73
2022-12-20T06:26:37.143Z,36.27
2022-12-20T06:27:10.014Z,35.13
2022-12-20T06:27:43.364Z,35.33
2022-12-20T06:28:21.599Z,36.27
2022-12-20T06:28:57.099Z,37.13
2022-12-20T06:29:30.593Z,35.97
2022-12-20T06:30:06.899Z,36.40
2022-12-20T06:30:39.705Z,36.57
2022-12-20T06:31:12.491Z,36.87
2022-12-20T06:31:45.364Z,37.07
2022-12-20T06:32:18.573Z,37.60
2022-12-20T06:32:51.332Z,36.70
2022-12-20T06:33:25.233Z,36.63
2022-12-20T06:33:58.071Z,37.27
2022-12-20T06:34:31.469Z,36.87
2022-12-20T06:35:04.818Z,37.20
2022-12-20T06:35:37.630Z,37.27
2022-12-20T06:36:10.594Z,38.13
2022-12-20T06:36:43.483Z,37.43
2022-12-20T06:37:16.239Z,37.00
2022-12-20T06:37:49.025Z,36.67
2022-12-20T06:38:21.812Z,36.50
2022-12-20T06:38:54.663Z,36.90
2022-12-20T06:39:27.452Z,36.60
2022-12-20T06:40:00.366Z,37.10
2022-12-20T06:40:33.161Z,37.23
2022-12-20T06:41:05.956Z,37.07
2022-12-20T06:41:40.171Z,36.97
2022-12-20T06:42:13.044Z,36.93
2022-12-20T06:42:45.846Z,37.90
2022-12-20T06:43:18.654Z,37.83
2022-12-20T06:43:51.431Z,37.43
2022-12-20T06:44:24.200Z,37.27
2022-12-20T06:44:56.964Z,37.33
2022-12-20T06:45:29.791Z,36.27
2022-12-20T06:46:02.985Z,36.50
2022-12-20T06:46:35.920Z,36.50
2022-12-20T06:47:08.713Z,37.40
2022-12-20T06:47:41.719Z,37.47
2022-12-20T06:48:14.554Z,36.83
2022-12-20T06:48:47.393Z,35.73
2022-12-20T06:49:20.225Z,36.00
2022-12-20T06:49:53.097Z,36.00
2022-12-20T06:50:26.939Z,36.93
2022-12-20T06:50:59.877Z,37.93
2022-12-20T06:51:32.676Z,37.97
2022-12-20T06:52:05.607Z,37.10
2022-12-20T06:52:38.444Z,36.97
2022-12-20T06:53:11.277Z,35.83
2022-12-20T06:53:44.087Z,36.37
2022-12-20T06:54:16.865Z,35.57
2022-12-20T06:54:49.703Z,35.70
2022-12-20T06:55:22.560Z,36.37
2022-12-20T06:55:55.407Z,36.27
2022-12-20T06:56:28.268Z,37.63
2022-12-20T06:57:01.047Z,36.27
2022-12-20T06:57:33.870Z,37.87
2022-12-20T06:58:06.902Z,37.47
2022-12-20T06:58:39.829Z,36.70
2022-12-20T06:59:12.643Z,37.43
2022-12-20T06:59:45.419Z,37.13
2022-12-20T07:00:18.746Z,36.07
2022-12-20T07:00:51.584Z,36.30
2022-12-20T07:01:24.444Z,37.00
2022-12-20T07:01:57.492Z,36.30
2022-12-20T07:02:30.533Z,36.33
2022-12-20T07:03:03.511Z,35.10
2022-12-20T07:03:36.729Z,36.23
2022-12-20T07:04:09.561Z,37.47
2022-12-20T07:04:42.414Z,37.60
2022-12-20T07:05:15.303Z,36.47
2022-12-20T07:05:54.398Z,36.57
2022-12-20T07:06:29.077Z,37.03
2022-12-20T07:07:01.880Z,37.40
2022-12-20T07:07:40.193Z,37.60
2022-12-20T07:08:17.283Z,36.93
2022-12-20T07:08:50.105Z,37.37
2022-12-20T07:09:23.053Z,35.93
2022-12-20T07:09:55.916Z,37.73
2022-12-20T07:10:28.725Z,37.87
2022-12-20T07:11:08.347Z,36.80
2022-12-20T07:11:43.312Z,36.10
2022-12-20T07:12:16.941Z,36.20
2022-12-20T07:12:49.733Z,37.07
2022-12-20T07:13:23.247Z,38.17
2022-12-20T07:13:59.434Z,37.23
2022-12-20T07:14:32.231Z,37.13
2022-12-20T07:15:05.418Z,37.03
2022-12-20T07:15:38.214Z,37.50
2022-12-20T07:16:11.012Z,38.53
2022-12-20T07:16:44.037Z,37.10
2022-12-20T07:17:16.977Z,37.57
2022-12-20T07:17:49.782Z,36.63
2022-12-20T07:18:22.553Z,36.53
2022-12-20T07:18:55.683Z,36.37
2022-12-20T07:19:28.497Z,35.50
2022-12-20T07:20:03.241Z,35.77
2022-12-20T07:20:39.378Z,36.10
2022-12-20T07:21:14.205Z,36.40
2022-12-20T07:21:47.689Z,37.03
2022-12-20T07:22:20.484Z,37.57
2022-12-20T07:22:53.317Z,37.47
2022-12-20T07:23:26.134Z,37.30
2022-12-20T07:23:59.009Z,36.13
2022-12-20T07:24:32.542Z,36.83
2022-12-20T07:25:05.669Z,35.90
2022-12-20T07:25:38.426Z,36.70
2022-12-20T07:26:11.786Z,38.77
2022-12-20T07:26:45.735Z,37.33
2022-12-20T07:27:18.573Z,37.37
2022-12-20T07:27:51.897Z,37.97
2022-12-20T07:28:26.217Z,37.57
2022-12-20T07:28:59.057Z,37.63
2022-12-20T07:29:31.850Z,36.47
2022-12-20T07:30:05.915Z,37.30
2022-12-20T07:30:38.694Z,36.77
2022-12-20T07:31:11.560Z,36.93
2022-12-20T07:31:44.468Z,37.13
2022-12-20T07:32:17.371Z,36.63
2022-12-20T07:32:50.252Z,38.10
2022-12-20T07:33:23.111Z,37.73
2022-12-20T07:33:55.884Z,36.30
2022-12-20T07:34:28.694Z,37.00
2022-12-20T07:35:01.632Z,35.47
2022-12-20T07:35:34.447Z,34.93
2022-12-20T07:36:11.362Z,35.33
2022-12-20T07:36:44.200Z,35.97
2022-12-20T07:37:16.990Z,37.27
2022-12-20T07:37:49.767Z,37.47
2022-12-20T07:38:22.579Z,37.00
2022-12-20T07:38:55.346Z,36.10
2022-12-20T07:39:28.187Z,34.93
2022-12-20T07:40:01.076Z,35.13
2022-12-20T07:40:33.885Z,35.30
2022-12-20T07:41:12.191Z,35.57
2022-12-20T07:41:45.035Z,35.47
2022-12-20T07:42:18.861Z,35.87
2022-12-20T07:42:51.657Z,36.27
2022-12-20T07:43:24.535Z,36.13
2022-12-20T07:43:59.331Z,34.97
2022-12-20T07:44:32.261Z,35.73